Time;durP1;ratioP1;P1;durP2;ratioP2;P2;SDS_P1;SDS_P2;PMS_P1;PMS_P2;Temp;Humidity;BMP_temperature;BMP_pressure;BME280_temperature;BME280_humidity;BME280_pressure;Samples;Min_cycle;Max_cycle;Signal;HPM_P1;HPM_P2
2021/04/19 00:01:00;;;;;;;2.95;1.40;;;;;;;25.98;28.84;96784.75;5059986;28;20897;-31
2021/04/19 00:03:26;;;;;;;1.40;1.10;;;;;;;25.98;28.93;96790.84;5065679;28;20033;-26
2021/04/19 00:05:51;;;;;;;13.80;2.63;;;;;;;25.98;28.65;96780.34;5065380;28;20552;-27
2021/04/19 00:08:16;;;;;;;8.73;1.92;;;;;;;25.97;28.81;96783.88;5066440;28;20048;-30
2021/04/19 00:10:42;;;;;;;2.97;1.60;;;;;;;25.97;28.82;96783.88;5061599;28;20075;-29
2021/04/19 00:13:07;;;;;;;3.22;1.73;;;;;;;25.97;28.86;96778.63;5066728;28;20033;-28
2021/04/19 00:15:33;;;;;;;1.98;1.45;;;;;;;25.97;28.88;96781.25;5066665;28;20510;-31
2021/04/19 00:17:58;;;;;;;2.10;1.20;;;;;;;25.93;28.91;96761.38;5062989;28;20074;-28
2021/04/19 00:20:24;;;;;;;1.50;1.33;;;;;;;25.96;28.94;96772.56;5065560;28;20418;-28
2021/04/19 00:22:50;;;;;;;2.92;1.50;;;;;;;25.95;28.87;96765.63;5069493;28;20024;-27
2021/04/19 00:25:15;;;;;;;2.47;1.38;;;;;;;25.96;28.77;96769.06;5067642;28;20035;-29
2021/04/19 00:27:41;;;;;;;2.08;1.20;;;;;;;25.96;28.62;96776.94;5068842;28;20032;-30
2021/04/19 00:30:07;;;;;;;4.25;1.33;;;;;;;25.96;28.84;96771.69;5059080;28;20078;-30
2021/04/19 00:32:32;;;;;;;1.58;0.98;;;;;;;25.96;28.78;96779.56;5052700;28;20043;-25
2021/04/19 00:34:58;;;;;;;1.50;1.00;;;;;;;25.97;28.87;96778.63;5067304;28;20024;-26
2021/04/19 00:37:23;;;;;;;3.10;1.30;;;;;;;25.96;28.90;96769.06;5061171;28;20046;-26
2021/04/19 00:39:49;;;;;;;2.22;1.55;;;;;;;25.96;28.81;96774.31;5064730;28;20106;-27
2021/04/19 00:42:15;;;;;;;1.58;1.20;;;;;;;25.95;28.73;96763.00;5067548;28;20040;-28
2021/04/19 00:44:40;;;;;;;1.63;1.20;;;;;;;25.96;28.66;96767.31;5064220;28;20031;-28
2021/04/19 00:47:06;;;;;;;2.30;1.20;;;;;;;25.95;28.78;96760.34;5061160;28;20025;-27
2021/04/19 00:49:32;;;;;;;3.42;1.38;;;;;;;25.95;28.65;96765.63;5076483;27;20024;-29
2021/04/19 00:51:57;;;;;;;1.92;1.30;;;;;;;25.96;28.83;96775.19;5066050;28;20705;-28
2021/04/19 00:54:23;;;;;;;3.78;1.50;;;;;;;25.95;28.71;96760.34;5069380;28;20020;-27
2021/04/19 00:56:49;;;;;;;1.38;1.20;;;;;;;25.96;28.62;96758.56;5069872;28;20487;-29
2021/04/19 00:59:15;;;;;;;2.88;1.30;;;;;;;25.96;28.81;96751.53;5049208;28;20048;-27
2021/04/19 01:01:40;;;;;;;9.57;1.70;;;;;;;25.96;28.61;96755.94;5067259;28;20062;-27
2021/04/19 01:04:05;;;;;;;1.48;0.90;;;;;;;25.96;28.64;96755.94;5061427;28;20024;-28
2021/04/19 01:06:31;;;;;;;3.25;1.35;;;;;;;25.95;28.86;96749.84;5062052;28;20028;-27
2021/04/19 01:08:56;;;;;;;1.42;1.13;;;;;;;25.95;28.66;96754.25;5068708;28;20024;-29
2021/04/19 01:11:22;;;;;;;1.52;1.20;;;;;;;25.96;28.64;96750.69;5068591;28;20089;-27
2021/04/19 01:13:47;;;;;;;1.52;1.27;;;;;;;25.95;28.76;96752.47;5063740;28;20555;-27
2021/04/19 01:16:13;;;;;;;1.13;1.00;;;;;;;25.95;28.78;96754.25;5067790;28;20032;-28
2021/04/19 01:18:38;;;;;;;3.13;1.27;;;;;;;25.94;28.58;96742.88;5066771;28;20234;-27
2021/04/19 01:21:04;;;;;;;3.35;1.38;;;;;;;25.95;28.79;96749.00;5063089;28;20028;-29
2021/04/19 01:23:29;;;;;;;2.47;1.27;;;;;;;25.94;28.82;96756.00;5064760;28;20033;-29
2021/04/19 01:25:55;;;;;;;2.67;1.45;;;;;;;25.94;28.75;96747.31;5066322;28;20074;-26
2021/04/19 01:28:20;;;;;;;1.25;1.13;;;;;;;25.95;28.74;96759.50;5064900;28;20081;-30
2021/04/19 01:30:47;;;;;;;1.30;1.20;;;;;;;25.94;28.73;96752.56;5057703;28;21658;-29
2021/04/19 01:33:12;;;;;;;1.63;1.30;;;;;;;25.94;28.75;96747.31;5059183;28;20028;-28
2021/04/19 01:35:38;;;;;;;1.80;1.13;;;;;;;25.95;28.74;96751.63;5063385;28;20033;-28
2021/04/19 01:38:07;;;;;;;1.80;1.08;;;;;;;25.95;28.61;96749.00;5065304;28;20032;-26
2021/04/19 01:40:32;;;;;;;1.38;1.10;;;;;;;25.93;28.63;96746.44;5069266;28;20032;-27
2021/04/19 01:42:58;;;;;;;1.38;1.00;;;;;;;25.94;28.50;96747.31;5063200;28;20043;-26
2021/04/19 01:45:23;;;;;;;2.10;1.10;;;;;;;25.93;28.59;96750.88;5064595;28;20763;-25
2021/04/19 01:47:49;;;;;;;2.88;1.10;;;;;;;25.92;28.74;96744.75;5062876;28;20016;-26
2021/04/19 01:50:20;;;;;;;1.48;1.27;;;;;;;25.94;28.52;96755.19;5063022;28;20043;-25
2021/04/19 01:52:45;;;;;;;1.27;1.15;;;;;;;25.92;28.74;96749.16;5065698;28;20246;-27
2021/04/19 01:55:14;;;;;;;1.40;0.98;;;;;;;25.92;28.58;96749.16;5065174;28;20476;-27
2021/04/19 01:57:40;;;;;;;1.33;1.02;;;;;;;25.92;28.73;96750.00;5063716;28;20024;-25
2021/04/19 02:00:09;;;;;;;1.90;1.08;;;;;;;25.93;28.71;96743.00;5061161;28;20084;-27
2021/04/19 02:02:57;;;;;;;1.70;1.20;;;;;;;25.92;28.85;96739.50;5065650;28;20050;-26
2021/04/19 02:06:15;;;;;;;1.45;1.00;;;;;;;25.92;28.51;96739.50;5065462;28;20044;-25
2021/04/19 02:09:07;;;;;;;3.53;1.20;;;;;;;25.91;28.65;96734.34;5063142;28;20042;-27
2021/04/19 02:12:12;;;;;;;2.00;1.20;;;;;;;25.91;28.58;96734.34;5048390;28;20166;-26
2021/04/19 02:14:56;;;;;;;1.63;1.25;;;;;;;25.92;28.52;96728.16;5059079;28;20023;-25
2021/04/19 02:17:37;;;;;;;1.30;1.13;;;;;;;25.91;28.64;96731.72;5061782;28;20025;-23
2021/04/19 02:20:24;;;;;;;1.42;1.05;;;;;;;25.90;28.49;96730.84;5062868;28;20028;-30
2021/04/19 02:22:56;;;;;;;1.77;1.02;;;;;;;25.89;28.55;96725.72;5060376;28;20143;-24
2021/04/19 02:25:23;;;;;;;;;;;;;;;25.89;28.74;96720.47;5044127;28;20036;-26
2021/04/19 02:27:58;;;;;;;1.85;1.05;;;;;;;25.89;28.70;96717.84;5062107;28;19916;-27
2021/04/19 02:30:26;;;;;;;1.77;1.30;;;;;;;25.88;28.53;96721.38;5071360;28;23080;-26
2021/04/19 02:32:51;;;;;;;1.80;1.27;;;;;;;25.88;28.44;96726.63;5064657;28;20104;-25
2021/04/19 02:35:20;;;;;;;1.88;1.05;;;;;;;25.89;28.64;96728.34;5062228;28;20839;-29
2021/04/19 02:37:45;;;;;;;2.50;1.25;;;;;;;25.89;28.66;96728.34;5075340;28;20029;-27
2021/04/19 02:40:11;;;;;;;5.53;1.10;;;;;;;25.89;28.53;96728.34;5067146;28;20086;-25
2021/04/19 02:42:38;;;;;;;1.58;1.20;;;;;;;25.87;28.49;96730.19;5050271;28;20043;-30
2021/04/19 02:45:06;;;;;;;1.75;1.20;;;;;;;25.89;28.48;96730.97;5064454;28;20033;-29
2021/04/19 02:47:31;;;;;;;1.17;1.05;;;;;;;25.89;28.68;96728.34;5084350;28;20035;-28
2021/04/19 02:49:57;;;;;;;1.70;1.10;;;;;;;25.89;28.64;96728.34;5070770;28;20036;-27
2021/04/19 02:52:22;;;;;;;1.90;1.20;;;;;;;25.88;28.64;96721.38;5059280;28;20031;-23
2021/04/19 02:54:48;;;;;;;1.33;1.05;;;;;;;25.89;28.64;96725.72;5048036;28;20035;-26
2021/04/19 02:57:22;;;;;;;2.65;1.15;;;;;;;25.89;28.63;96729.16;5064596;28;20047;-25
2021/04/19 02:59:48;;;;;;;2.10;1.20;;;;;;;25.88;28.68;96727.47;5066039;28;20020;-27
2021/04/19 03:02:13;;;;;;;2.80;1.33;;;;;;;25.89;28.59;96733.59;5067639;28;20055;-30
2021/04/19 03:04:39;;;;;;;1.55;1.20;;;;;;;25.88;28.43;96730.09;5069607;28;20036;-30
2021/04/19 03:07:06;;;;;;;1.10;0.95;;;;;;;25.88;28.54;96722.22;5063957;28;20599;-29
2021/04/19 03:09:32;;;;;;;4.60;1.20;;;;;;;25.89;28.65;96723.09;5065412;28;20032;-28
2021/04/19 03:12:02;;;;;;;1.40;1.17;;;;;;;25.89;28.55;96723.09;5048070;28;20689;-27
2021/04/19 03:14:31;;;;;;;1.63;1.13;;;;;;;25.88;28.47;96721.38;5066548;28;20378;-27
2021/04/19 03:17:05;;;;;;;2.22;1.00;;;;;;;25.88;28.43;96724.84;5069631;28;20059;-27
2021/04/19 03:19:31;;;;;;;1.73;1.10;;;;;;;25.89;28.53;96723.09;5058323;28;20655;-25
2021/04/19 03:21:56;;;;;;;2.08;1.13;;;;;;;25.88;28.54;96722.22;5067578;28;20036;-29
2021/04/19 03:24:21;;;;;;;2.67;1.10;;;;;;;25.89;28.66;96728.34;5054514;28;22970;-26
2021/04/19 03:26:47;;;;;;;2.33;1.05;;;;;;;25.88;28.50;96724.00;5059060;28;20028;-29
2021/04/19 03:29:12;;;;;;;1.95;1.10;;;;;;;25.86;28.58;96729.34;5057371;28;20697;-27
2021/04/19 03:31:44;;;;;;;1.08;0.98;;;;;;;25.88;28.39;96731.88;5055854;28;20090;-26
2021/04/19 03:34:12;;;;;;;1.33;0.98;;;;;;;25.88;28.50;96729.25;5059952;28;21513;-25
2021/04/19 03:36:37;;;;;;;2.60;1.20;;;;;;;25.88;28.54;96726.63;5066238;28;20028;-26
2021/04/19 03:39:03;;;;;;;1.48;0.90;;;;;;;25.88;28.53;96726.63;5057245;28;20769;-27
2021/04/19 03:41:29;;;;;;;1.42;1.13;;;;;;;25.88;28.51;96721.38;5070996;28;20035;-30
2021/04/19 03:43:57;;;;;;;1.83;1.00;;;;;;;25.87;28.49;96724.94;5068775;28;20062;-30
2021/04/19 03:46:22;;;;;;;1.30;1.08;;;;;;;25.87;28.47;96717.06;5060647;28;20286;-26
2021/04/19 03:48:57;;;;;;;1.52;0.90;;;;;;;25.87;28.55;96715.28;5067920;28;20082;-27
2021/04/19 03:51:22;;;;;;;1.77;1.20;;;;;;;25.87;28.36;96709.19;5081424;28;20029;-26
2021/04/19 03:53:49;;;;;;;3.40;1.20;;;;;;;25.86;28.40;96703.09;5068314;28;20411;-25
2021/04/19 03:56:15;;;;;;;1.88;1.10;;;;;;;25.86;28.49;96710.97;5052051;28;20024;-27
2021/04/19 03:58:41;;;;;;;1.42;1.00;;;;;;;25.86;28.45;96715.38;5063232;28;20041;-27
2021/04/19 04:01:06;;;;;;;2.78;0.95;;;;;;;25.87;28.50;96703.94;5045037;28;20032;-27
2021/04/19 04:03:32;;;;;;;4.00;2.20;;;;;;;25.85;28.46;96701.38;5067622;28;20027;-25
2021/04/19 04:05:57;;;;;;;3.35;1.55;;;;;;;25.87;28.39;96709.19;5069575;28;20070;-26
2021/04/19 04:08:22;;;;;;;1.67;1.20;;;;;;;25.85;28.51;96713.69;5045764;28;20028;-26
2021/04/19 04:10:48;;;;;;;1.80;1.23;;;;;;;25.86;28.48;96707.50;5069226;28;20020;-30
2021/04/19 04:13:14;;;;;;;1.20;1.10;;;;;;;25.85;28.45;96700.56;5078936;27;20036;-24
2021/04/19 04:15:54;;;;;;;2.42;1.17;;;;;;;25.85;28.54;96711.06;5068115;28;20039;-29
2021/04/19 04:18:20;;;;;;;3.13;1.13;;;;;;;25.86;28.46;96707.50;5065346;28;20408;-27
2021/04/19 04:20:46;;;;;;;1.38;1.05;;;;;;;25.80;28.64;96701.66;5064242;28;20043;-27
2021/04/19 04:23:12;;;;;;;1.08;0.95;;;;;;;25.83;28.58;96711.97;5070388;28;20024;-25
2021/04/19 04:25:38;;;;;;;3.10;1.08;;;;;;;25.85;28.48;96711.06;5066409;28;20039;-31
2021/04/19 04:28:04;;;;;;;1.90;1.30;;;;;;;25.84;28.36;96710.22;5067892;28;20381;-26
2021/04/19 04:30:31;;;;;;;3.33;1.20;;;;;;;25.83;28.47;96714.59;5067348;28;20032;-25
2021/04/19 04:32:56;;;;;;;2.15;1.40;;;;;;;25.83;28.30;96713.75;5066530;28;20108;-28
2021/04/19 04:35:21;;;;;;;2.17;1.27;;;;;;;25.83;28.44;96711.97;5061485;28;20047;-29
2021/04/19 04:37:47;;;;;;;1.58;1.05;;;;;;;25.84;28.39;96710.22;5060879;28;20028;-27
2021/04/19 04:40:12;;;;;;;1.92;1.33;;;;;;;25.83;28.62;96708.50;5066826;28;20498;-28
2021/04/19 04:42:38;;;;;;;2.95;1.27;;;;;;;25.84;28.42;96704.94;5065906;28;20024;-24
2021/04/19 04:45:04;;;;;;;3.15;1.60;;;;;;;25.82;28.61;96712.91;5054148;28;20024;-26
2021/04/19 04:47:37;;;;;;;1.95;1.15;;;;;;;25.82;28.51;96702.41;5065896;28;20139;-26
2021/04/19 04:50:19;;;;;;;1.48;1.15;;;;;;;25.83;28.35;96704.09;5061852;28;20557;-27
2021/04/19 04:52:57;;;;;;;2.97;1.05;;;;;;;25.82;28.46;96702.41;5060126;28;20024;-27
2021/04/19 04:55:23;;;;;;;1.52;1.05;;;;;;;25.82;28.54;96714.69;5056861;28;20741;-25
2021/04/19 04:57:48;;;;;;;1.33;1.13;;;;;;;25.81;28.68;96713.84;5068386;28;20175;-28
2021/04/19 05:00:15;;;;;;;1.30;1.00;;;;;;;25.81;28.42;96716.47;5060048;28;21010;-24
2021/04/19 05:02:40;;;;;;;1.10;0.88;;;;;;;25.82;28.44;96712.06;5079168;28;20085;-29
2021/04/19 05:05:06;;;;;;;1.92;1.33;;;;;;;25.82;28.61;96715.53;5047422;28;20424;-28
2021/04/19 05:07:32;;;;;;;1.63;1.10;;;;;;;25.82;28.39;96712.91;5052576;28;20038;-29
2021/04/19 05:09:57;;;;;;;2.63;1.08;;;;;;;25.82;28.60;96712.91;5064856;28;20071;-28
2021/04/19 05:12:23;;;;;;;1.98;1.30;;;;;;;25.83;28.24;96714.59;5067946;28;20525;-26
2021/04/19 05:15:02;;;;;;;1.45;1.00;;;;;;;25.82;28.29;96718.16;5063131;28;20025;-29
2021/04/19 05:17:27;;;;;;;1.73;1.02;;;;;;;25.81;28.57;96715.63;5065495;28;20036;-28
2021/04/19 05:19:53;;;;;;;1.30;1.10;;;;;;;25.82;28.76;96718.16;5064436;28;20036;-25
2021/04/19 05:22:19;;;;;;;2.13;1.10;;;;;;;25.82;28.51;96723.41;5063467;28;20032;-22
2021/04/19 05:24:44;;;;;;;2.65;1.10;;;;;;;25.83;28.49;96719.03;5069924;28;20043;-26
2021/04/19 05:27:11;;;;;;;1.45;1.05;;;;;;;25.82;28.18;96718.16;5063801;28;20016;-28
2021/04/19 05:29:37;;;;;;;1.70;1.40;;;;;;;25.82;28.18;96720.78;5068427;28;20086;-26
2021/04/19 05:32:02;;;;;;;1.20;1.10;;;;;;;25.82;28.76;96722.56;5062938;28;20040;-27
2021/04/19 05:34:28;;;;;;;1.23;0.85;;;;;;;25.81;28.80;96716.47;5062729;28;20088;-29
2021/04/19 05:36:54;;;;;;;2.38;1.20;;;;;;;25.81;28.15;96716.47;5063257;28;20043;-29
2021/04/19 05:39:19;;;;;;;1.63;0.98;;;;;;;25.81;28.08;96721.72;5062754;28;20109;-29
2021/04/19 05:41:45;;;;;;;1.10;1.00;;;;;;;25.82;28.84;96727.84;5067256;28;20063;-29
2021/04/19 05:44:10;;;;;;;1.30;1.08;;;;;;;25.81;28.20;96719.09;5062284;28;20031;-29
2021/04/19 05:46:35;;;;;;;1.48;0.98;;;;;;;25.81;28.83;96728.72;5062596;28;20036;-29
2021/04/19 05:49:01;;;;;;;2.03;1.15;;;;;;;25.81;28.23;96729.59;5063316;28;20036;-29
2021/04/19 05:51:35;;;;;;;1.27;1.05;;;;;;;25.81;28.63;96726.97;5062775;28;20036;-26
2021/04/19 05:54:00;;;;;;;1.83;1.17;;;;;;;25.80;28.53;96725.28;5032236;28;20032;-27
2021/04/19 05:56:35;;;;;;;1.35;1.20;;;;;;;25.81;28.32;96732.22;5067762;28;20412;-28
2021/04/19 05:59:40;;;;;;;1.88;1.42;;;;;;;25.80;28.55;96725.28;5063641;28;20682;-26
2021/04/19 06:02:07;;;;;;;3.08;1.02;;;;;;;25.80;28.16;96733.16;5060149;28;20047;-28
2021/04/19 06:04:52;;;;;;;1.33;1.23;;;;;;;25.79;28.82;96736.72;5062197;28;20021;-24
2021/04/19 06:07:27;;;;;;;2.15;1.15;;;;;;;25.79;28.16;96744.59;5061080;28;20024;-28
2021/04/19 06:09:58;;;;;;;2.60;1.20;;;;;;;25.79;28.33;96731.47;5048797;28;20028;-27
2021/04/19 06:12:26;;;;;;;3.28;1.48;;;;;;;25.79;28.55;96747.22;5066693;28;20890;-27
2021/04/19 06:14:51;;;;;;;1.98;1.38;;;;;;;25.79;28.79;96744.59;5060247;28;20094;-30
2021/04/19 06:17:17;;;;;;;1.38;1.23;;;;;;;25.79;28.16;96739.34;5063783;28;20032;-30
2021/04/19 06:19:44;;;;;;;2.45;1.27;;;;;;;25.79;28.41;96748.97;5045685;28;20614;-29
2021/04/19 06:22:12;;;;;;;1.38;1.17;;;;;;;25.80;28.26;96742.78;5063355;28;20579;-29
2021/04/19 06:24:38;;;;;;;5.22;1.42;;;;;;;25.79;28.11;96746.34;5060041;28;20020;-27
2021/04/19 06:27:03;;;;;;;2.45;1.38;;;;;;;25.79;28.61;96749.84;5065514;28;20404;-29
2021/04/19 06:29:31;;;;;;;2.33;1.48;;;;;;;25.78;28.25;96748.13;5063544;28;20536;-29
2021/04/19 06:31:57;;;;;;;1.77;1.30;;;;;;;25.78;28.33;96747.28;5061647;28;20024;-27
2021/04/19 06:34:23;;;;;;;1.88;1.40;;;;;;;25.78;28.60;96753.38;5062561;28;20447;-28
2021/04/19 06:36:49;;;;;;;2.63;1.65;;;;;;;25.79;28.21;96741.97;5061091;28;20044;-27
2021/04/19 06:39:16;;;;;;;2.30;1.63;;;;;;;25.79;28.15;96751.59;5063828;28;20028;-30
2021/04/19 06:41:41;;;;;;;13.75;1.92;;;;;;;25.78;28.31;96750.75;5056525;28;20028;-28
2021/04/19 06:44:07;;;;;;;11.07;1.98;;;;;;;25.78;28.75;96744.66;5057225;28;20047;-27
2021/04/19 06:46:37;;;;;;;5.47;1.92;;;;;;;25.78;28.71;96748.13;5040622;28;20454;-28
2021/04/19 06:49:03;;;;;;;8.27;3.95;;;;;;;25.77;28.48;96746.44;5058022;28;20051;-28
2021/04/19 06:51:29;;;;;;;8.45;2.20;;;;;;;25.77;28.72;96751.69;5056303;28;20077;-26
2021/04/19 06:53:55;;;;;;;6.05;1.88;;;;;;;25.76;28.66;96750.00;5062228;28;20446;-26
2021/04/19 06:56:37;;;;;;;11.73;3.67;;;;;;;25.77;28.31;96746.44;5060231;28;20119;-24
2021/04/19 06:59:05;;;;;;;7.75;4.18;;;;;;;25.75;27.87;96748.31;5054039;28;20087;-25
2021/04/19 07:01:31;;;;;;;13.35;3.67;;;;;;;25.75;28.36;96748.31;5045593;28;20190;-27
2021/04/19 07:04:10;;;;;;;11.90;3.53;;;;;;;25.74;27.74;96751.00;5047154;28;20487;-26
2021/04/19 07:06:36;;;;;;;13.05;4.00;;;;;;;25.73;28.11;96752.78;5059833;28;20121;-26
2021/04/19 07:09:20;;;;;;;9.05;3.42;;;;;;;25.73;27.76;96754.56;5057825;28;20035;-27
2021/04/19 07:11:45;;;;;;;8.90;3.55;;;;;;;25.71;27.94;96754.66;5056833;28;20035;-27
2021/04/19 07:14:11;;;;;;;8.88;3.70;;;;;;;25.70;27.83;96745.91;5059133;28;20023;-26
2021/04/19 07:16:36;;;;;;;6.80;3.70;;;;;;;25.68;27.69;96755.66;5060329;28;20032;-27
2021/04/19 07:19:04;;;;;;;6.40;3.60;;;;;;;25.68;28.07;96757.44;5057145;28;20032;-27
2021/04/19 07:21:29;;;;;;;7.60;3.45;;;;;;;25.66;27.35;96760.13;5059744;28;20058;-28
2021/04/19 07:23:55;;;;;;;15.50;3.47;;;;;;;25.67;27.89;96761.00;5059874;28;20036;-28
2021/04/19 07:26:20;;;;;;;9.82;3.83;;;;;;;25.67;27.50;96766.25;5057617;28;20173;-26
2021/04/19 07:28:45;;;;;;;6.90;3.47;;;;;;;25.65;27.91;96760.22;5059928;28;20020;-27
2021/04/19 07:31:11;;;;;;;5.25;3.08;;;;;;;25.65;27.46;96758.44;5060333;28;20047;-26
2021/04/19 07:33:37;;;;;;;7.15;3.42;;;;;;;25.65;27.72;96757.59;5062782;28;20518;-32
2021/04/19 07:36:28;;;;;;;7.03;3.15;;;;;;;25.65;27.45;96747.09;5061812;28;20035;-28
2021/04/19 07:38:54;;;;;;;6.60;3.40;;;;;;;25.64;27.60;96761.16;5064931;28;20024;-25
2021/04/19 07:41:20;;;;;;;9.52;4.07;;;;;;;25.63;27.37;96748.97;5062416;28;20055;-26
2021/04/19 07:43:46;;;;;;;5.50;3.80;;;;;;;25.63;27.52;96754.22;5067405;28;20032;-26
2021/04/19 07:46:15;;;;;;;6.47;4.00;;;;;;;25.62;27.46;96758.59;5064293;28;20041;-30
2021/04/19 07:48:46;;;;;;;10.27;4.15;;;;;;;25.63;27.60;96764.72;5066801;28;20031;-26
2021/04/19 07:51:27;;;;;;;6.75;4.07;;;;;;;25.62;27.91;96763.03;5070359;28;20033;-28
2021/04/19 07:54:12;;;;;;;5.07;4.00;;;;;;;25.61;27.67;96756.06;5064008;28;20025;-27
2021/04/19 07:57:05;;;;;;;5.88;4.25;;;;;;;25.59;27.90;96758.75;5068566;28;20107;-28
2021/04/19 07:59:32;;;;;;;6.38;4.10;;;;;;;25.59;27.23;96765.78;5066983;28;20044;-25
2021/04/19 08:02:09;;;;;;;6.00;4.10;;;;;;;25.57;27.31;96765.88;5065024;28;20249;-30
2021/04/19 08:04:44;;;;;;;11.32;4.28;;;;;;;25.55;27.73;96758.03;5065825;28;20024;-26
2021/04/19 08:07:19;;;;;;;6.00;3.85;;;;;;;25.54;27.86;96756.34;5064708;28;20052;-24
2021/04/19 08:10:00;;;;;;;5.20;3.40;;;;;;;25.54;27.23;96753.72;5066775;28;20557;-25
2021/04/19 08:12:39;;;;;;;5.00;3.85;;;;;;;25.55;27.43;96746.72;5065753;28;20781;-26
2021/04/19 08:15:12;;;;;;;7.47;3.60;;;;;;;25.55;27.90;96750.16;5068873;28;20064;-26
2021/04/19 08:17:38;;;;;;;6.68;4.55;;;;;;;25.50;28.00;96740.84;5068866;28;20056;-26
2021/04/19 08:20:10;;;;;;;12.05;6.28;;;;;;;25.53;27.53;96753.81;5063671;28;20043;-25
2021/04/19 08:22:36;;;;;;;22.58;7.07;;;;;;;25.45;26.72;96757.66;5053752;28;20508;-26
2021/04/19 08:25:21;;;;;;;15.00;7.75;;;;;;;25.33;26.91;96757.47;5065174;28;20109;-28
2021/04/19 08:28:10;;;;;;;17.02;8.02;;;;;;;25.11;26.08;96751.56;5064226;28;20535;-22
2021/04/19 08:30:35;;;;;;;14.02;8.00;;;;;;;24.92;26.36;96754.25;5064935;28;20024;-26
2021/04/19 08:33:01;;;;;;;11.50;8.20;;;;;;;24.73;26.52;96749.91;5063197;28;20771;-25
2021/04/19 08:35:27;;;;;;;12.48;6.70;;;;;;;24.59;26.67;96745.34;5061233;28;20020;-27
2021/04/19 08:37:56;;;;;;;14.77;6.32;;;;;;;24.53;26.94;96750.91;5058282;28;20660;-27
2021/04/19 08:40:21;;;;;;;10.80;5.30;;;;;;;24.49;26.97;96750.16;5043120;28;20167;-27
2021/04/19 08:42:46;;;;;;;8.07;5.05;;;;;;;24.49;27.30;96749.34;5063493;28;20596;-26
2021/04/19 08:45:12;;;;;;;8.75;4.82;;;;;;;24.51;27.37;96753.59;5056077;28;20475;-25
2021/04/19 08:47:38;;;;;;;9.63;4.70;;;;;;;24.55;27.36;96756.06;5062146;28;20333;-29
2021/04/19 08:50:05;;;;;;;19.75;4.20;;;;;;;24.58;27.54;96755.88;5064185;28;20839;-24
2021/04/19 08:52:31;;;;;;;7.00;4.00;;;;;;;24.62;27.61;96757.44;5065059;28;20028;-28
2021/04/19 08:54:56;;;;;;;8.98;4.00;;;;;;;24.66;27.14;96759.00;5059995;28;20423;-27
2021/04/19 08:57:22;;;;;;;10.60;3.80;;;;;;;24.70;27.64;96755.28;5061863;28;20028;-26
2021/04/19 08:59:48;;;;;;;11.85;3.78;;;;;;;24.74;27.53;96762.09;5060666;28;20039;-29
2021/04/19 09:02:14;;;;;;;9.73;3.70;;;;;;;24.77;27.62;96761.09;5058499;28;20035;-27
2021/04/19 09:04:40;;;;;;;11.00;3.28;;;;;;;24.82;27.80;96759.06;5045769;28;20032;-25
2021/04/19 09:07:05;;;;;;;8.10;4.20;;;;;;;24.86;28.09;96765.06;5059101;28;20028;-28
2021/04/19 09:09:31;;;;;;;19.75;5.10;;;;;;;24.89;27.64;96764.91;5059339;28;20028;-25
2021/04/19 09:11:56;;;;;;;24.25;5.30;;;;;;;24.92;28.18;96768.22;5061672;28;20032;-27
2021/04/19 09:14:24;;;;;;;22.40;5.55;;;;;;;24.95;27.97;96764.59;5069447;28;20123;-26
2021/04/19 09:16:50;;;;;;;16.27;4.97;;;;;;;24.98;28.15;96763.59;5050400;28;20496;-28
2021/04/19 09:19:18;;;;;;;16.65;5.75;;;;;;;25.00;27.84;96766.97;5065773;28;20078;-25
2021/04/19 09:21:50;;;;;;;17.55;5.53;;;;;;;25.03;28.08;96767.69;5066682;28;20078;-28
2021/04/19 09:24:17;;;;;;;19.42;4.78;;;;;;;25.05;27.74;96772.84;5068348;28;20036;-27
2021/04/19 09:26:55;;;;;;;21.00;5.20;;;;;;;25.07;28.11;96770.13;5066495;28;20032;-29
2021/04/19 09:29:24;;;;;;;14.43;4.65;;;;;;;25.09;27.65;96773.56;5069660;28;20390;-30
2021/04/19 09:31:56;;;;;;;29.85;5.22;;;;;;;25.11;27.74;96776.94;5069807;28;20772;-28
2021/04/19 09:34:43;;;;;;;15.20;4.60;;;;;;;25.13;27.74;96783.78;5069718;28;20032;-27
2021/04/19 09:37:09;;;;;;;17.02;4.85;;;;;;;25.15;27.72;96781.09;5065753;28;20417;-27
2021/04/19 09:39:44;;;;;;;18.17;4.68;;;;;;;25.16;27.89;96788.03;5066582;28;20032;-23
2021/04/19 09:42:10;;;;;;;10.65;4.50;;;;;;;25.17;28.36;96780.09;5071526;28;20102;-27
2021/04/19 09:44:51;;;;;;;15.35;4.45;;;;;;;25.20;27.78;96788.75;5070885;28;20162;-29
2021/04/19 09:47:52;;;;;;;14.82;4.93;;;;;;;25.21;27.72;96780.81;5063159;28;20025;-27
2021/04/19 09:50:21;;;;;;;15.20;4.22;;;;;;;25.22;27.75;96779.88;5033268;28;20036;-25
2021/04/19 09:52:50;;;;;;;10.90;3.85;;;;;;;25.24;27.92;96779.78;5062381;28;20071;-27
2021/04/19 09:55:17;;;;;;;10.45;4.40;;;;;;;25.24;28.33;96777.16;5065714;28;20446;-24
2021/04/19 09:57:42;;;;;;;9.95;4.15;;;;;;;25.24;28.29;96777.16;5068119;28;20021;-26
2021/04/19 10:00:08;;;;;;;10.77;4.18;;;;;;;25.25;28.42;96777.06;5066323;28;20024;-28
2021/04/19 10:02:34;;;;;;;9.88;3.90;;;;;;;25.26;27.93;96778.78;5068220;28;20028;-27
2021/04/19 10:05:00;;;;;;;13.00;4.22;;;;;;;25.27;27.83;96774.38;5068531;28;20023;-29
2021/04/19 10:07:25;;;;;;;7.45;3.63;;;;;;;25.26;27.87;96773.53;5067759;28;20034;-29
2021/04/19 10:09:52;;;;;;;8.52;4.15;;;;;;;25.25;28.35;96760.50;5065390;28;20024;-28
2021/04/19 10:12:18;;;;;;;9.40;3.80;;;;;;;25.29;28.25;96768.13;5065993;28;20093;-26
2021/04/19 10:14:43;;;;;;;9.95;4.07;;;;;;;25.30;28.26;96768.97;5069940;28;20028;-31
2021/04/19 10:17:16;;;;;;;9.07;3.50;;;;;;;25.31;28.39;96765.41;5053573;28;20031;-29
2021/04/19 10:19:41;;;;;;;7.57;3.28;;;;;;;25.33;27.93;96768.81;5067043;28;20059;-28
2021/04/19 10:22:08;;;;;;;10.40;3.80;;;;;;;25.33;27.83;96765.34;5065502;28;20032;-26
2021/04/19 10:24:35;;;;;;;10.10;4.18;;;;;;;25.34;28.47;96769.66;5068287;28;20036;-28
2021/04/19 10:27:00;;;;;;;6.55;3.15;;;;;;;25.34;28.00;96770.50;5065984;28;20030;-26
2021/04/19 10:29:29;;;;;;;9.82;3.88;;;;;;;25.33;28.08;96763.59;5069322;28;20114;-28
2021/04/19 10:31:55;;;;;;;7.85;3.45;;;;;;;25.35;28.47;96774.00;5066244;28;20060;-29
2021/04/19 10:34:22;;;;;;;7.53;3.15;;;;;;;25.35;28.31;96769.56;5069903;28;20028;-24
2021/04/19 10:36:52;;;;;;;6.45;3.15;;;;;;;25.36;27.90;96767.81;5068374;28;20129;-29
2021/04/19 10:39:20;;;;;;;9.30;3.17;;;;;;;25.36;28.36;96773.06;5065851;28;20626;-23
2021/04/19 10:41:47;;;;;;;7.90;3.08;;;;;;;25.37;28.05;96769.50;5063735;28;20033;-27
2021/04/19 10:44:13;;;;;;;7.45;3.47;;;;;;;25.38;28.27;96768.56;5067713;28;20032;-26
2021/04/19 10:46:40;;;;;;;5.75;2.95;;;;;;;25.37;28.41;96769.50;5062735;28;20086;-27
2021/04/19 10:49:06;;;;;;;4.50;2.97;;;;;;;25.37;28.64;96765.13;5065543;28;20034;-29
2021/04/19 10:51:36;;;;;;;7.45;3.17;;;;;;;25.38;27.99;96768.56;5065775;28;21081;-23
2021/04/19 10:54:05;;;;;;;6.88;3.25;;;;;;;25.37;28.56;96764.25;5058300;28;20415;-26
2021/04/19 10:56:31;;;;;;;10.10;3.40;;;;;;;25.38;28.55;96755.47;5058576;28;20024;-24
2021/04/19 10:59:16;;;;;;;8.48;3.25;;;;;;;25.38;28.24;96755.47;5059566;28;20032;-28
2021/04/19 11:01:42;;;;;;;8.48;3.42;;;;;;;25.40;28.63;96753.63;5053888;28;20576;-29
2021/04/19 11:04:08;;;;;;;8.32;3.45;;;;;;;25.39;28.12;96747.50;5066720;28;20027;-27
2021/04/19 11:06:45;;;;;;;7.15;3.30;;;;;;;25.39;28.21;96746.66;5079845;28;20057;-25
2021/04/19 11:09:18;;;;;;;10.48;3.40;;;;;;;25.40;28.59;96751.00;5065524;28;20020;-26
2021/04/19 11:11:51;;;;;;;6.22;3.65;;;;;;;25.40;28.24;96753.63;5073213;28;20534;-25
2021/04/19 11:14:19;;;;;;;8.95;2.90;;;;;;;25.39;28.42;96746.66;5071280;28;20032;-28
2021/04/19 11:17:04;;;;;;;5.55;2.97;;;;;;;25.35;28.78;96745.97;5072149;28;20084;-27
2021/04/19 11:19:33;;;;;;;6.35;2.72;;;;;;;25.40;28.84;96754.44;5069559;28;20032;-21
2021/04/19 11:21:59;;;;;;;8.38;3.00;;;;;;;25.41;28.29;96752.69;5063627;28;20584;-26
2021/04/19 11:24:35;;;;;;;5.90;2.80;;;;;;;25.41;28.71;96755.31;5068596;28;20043;-29
2021/04/19 11:27:08;;;;;;;10.27;2.92;;;;;;;25.43;28.80;96758.69;5073271;28;20258;-26
2021/04/19 11:29:43;;;;;;;7.07;2.72;;;;;;;25.41;28.20;96750.06;5068851;28;20030;-27
2021/04/19 11:32:10;;;;;;;6.88;2.78;;;;;;;25.43;28.34;96753.44;5071129;28;20063;-25
2021/04/19 11:34:37;;;;;;;4.70;2.92;;;;;;;25.44;28.14;96749.91;5067238;28;20237;-25
2021/04/19 11:37:02;;;;;;;5.03;2.70;;;;;;;25.44;28.82;96749.91;5070170;28;20040;-28
2021/04/19 11:39:31;;;;;;;3.63;2.22;;;;;;;25.44;28.75;96755.16;5062225;28;20618;-28